createdAt,value
2022-12-08T00:00:07.935Z,28.65
2022-12-08T00:03:34.479Z,28.67
2022-12-08T00:10:00.048Z,24.10
2022-12-08T00:13:03.082Z,27.42
2022-12-08T00:16:05.863Z,28.13
2022-12-08T00:19:11.322Z,26.05
2022-12-08T00:22:14.821Z,22.95
2022-12-08T00:25:17.892Z,28.67
2022-12-08T00:28:20.384Z,25.77
2022-12-08T00:31:23.406Z,26.10
2022-12-08T00:34:26.340Z,23.92
2022-12-08T00:40:31.798Z,22.75
2022-12-08T00:43:34.908Z,24.63
2022-12-08T00:46:37.663Z,28.02
2022-12-08T00:49:41.191Z,35.05
2022-12-08T00:52:43.743Z,31.95
2022-12-08T00:55:46.782Z,37.70
2022-12-08T00:58:49.470Z,34.97
2022-12-08T01:01:52.482Z,39.90
2022-12-08T01:04:54.943Z,38.03
2022-12-08T01:07:57.990Z,39.85
2022-12-08T01:11:09.340Z,46.17
2022-12-08T01:14:13.237Z,40.15
2022-12-08T01:17:15.747Z,42.15
2022-12-08T01:20:18.804Z,39.08
2022-12-08T01:23:22.639Z,44.37
2022-12-08T01:26:25.825Z,36.67
2022-12-08T01:29:28.374Z,43.67
2022-12-08T01:32:31.391Z,46.72
2022-12-08T01:35:34.459Z,43.63
2022-12-08T01:38:37.604Z,46.35
2022-12-08T01:41:40.226Z,48.63
2022-12-08T01:44:43.165Z,48.10
2022-12-08T01:47:50.130Z,43.92
2022-12-08T01:50:55.695Z,48.63
2022-12-08T01:53:58.252Z,50.70
2022-12-08T01:57:06.459Z,49.50
2022-12-08T02:00:12.834Z,50.20
2022-12-08T02:03:22.481Z,48.63
2022-12-08T02:06:27.386Z,48.58
2022-12-08T02:09:30.448Z,50.92
2022-12-08T02:12:33.060Z,49.70
2022-12-08T02:15:46.075Z,47.78
2022-12-08T02:19:30.226Z,58.87
2022-12-08T02:22:57.281Z,47.60
2022-12-08T02:26:33.846Z,51.50
2022-12-08T02:29:52.787Z,51.85
2022-12-08T02:33:13.950Z,56.22
2022-12-08T02:36:38.920Z,54.08
2022-12-08T02:39:58.200Z,48.65
2022-12-08T02:43:07.417Z,54.53
2022-12-08T02:46:21.199Z,52.25
2022-12-08T02:49:32.836Z,51.30
2022-12-08T02:52:40.696Z,57.08
2022-12-08T02:56:01.680Z,52.90
2022-12-08T02:59:10.006Z,48.35
2022-12-08T03:02:38.257Z,45.50
2022-12-08T03:05:53.243Z,43.90
2022-12-08T03:09:20.469Z,45.53
2022-12-08T03:12:31.603Z,46.50
2022-12-08T03:15:37.237Z,48.13
2022-12-08T03:18:44.335Z,44.95
2022-12-08T03:21:52.462Z,49.42
2022-12-08T03:24:56.556Z,49.88
2022-12-08T03:28:00.246Z,46.55
2022-12-08T03:31:07.546Z,44.80
2022-12-08T03:34:13.080Z,47.75
2022-12-08T03:37:16.291Z,49.30
2022-12-08T03:40:20.633Z,47.92
2022-12-08T03:43:23.067Z,49.05
2022-12-08T03:49:29.765Z,42.67
2022-12-08T03:52:32.795Z,53.08
2022-12-08T03:55:35.270Z,40.38
2022-12-08T03:58:38.238Z,45.80
2022-12-08T04:01:40.706Z,50.33
2022-12-08T04:04:44.159Z,43.03
2022-12-08T04:07:46.693Z,44.85
2022-12-08T04:10:49.776Z,47.17
2022-12-08T04:13:52.551Z,45.43
2022-12-08T04:16:55.612Z,46.65
2022-12-08T04:19:58.017Z,41.10
2022-12-08T04:23:01.027Z,45.47
2022-12-08T04:26:04.610Z,71.77
2022-12-08T04:29:07.645Z,53.38
2022-12-08T04:32:10.206Z,48.78
2022-12-08T04:35:13.271Z,44.67
2022-12-08T04:38:16.638Z,49.72
2022-12-08T04:41:19.834Z,54.95
2022-12-08T04:44:22.291Z,46.35
2022-12-08T04:47:25.547Z,47.22
2022-12-08T04:50:28.638Z,45.15
2022-12-08T04:53:31.905Z,41.88
2022-12-08T04:56:34.617Z,43.97
2022-12-08T04:59:37.710Z,43.15
2022-12-08T05:02:40.643Z,40.10
2022-12-08T05:08:46.061Z,44.53
2022-12-08T05:11:49.456Z,40.55
2022-12-08T05:14:52.028Z,45.03
2022-12-08T05:17:55.188Z,43.55
2022-12-08T05:20:57.673Z,47.00
2022-12-08T05:24:00.666Z,45.85
2022-12-08T05:27:03.270Z,44.95
2022-12-08T05:30:07.293Z,45.95
2022-12-08T05:33:09.886Z,45.92
2022-12-08T05:36:14.811Z,49.15
2022-12-08T05:39:17.435Z,38.97
2022-12-08T05:42:24.539Z,46.50
2022-12-08T05:45:27.534Z,45.95
2022-12-08T05:48:30.734Z,44.45
2022-12-08T05:51:33.398Z,42.65
2022-12-08T05:54:39.706Z,42.53
2022-12-08T05:57:42.196Z,47.00
2022-12-08T06:00:46.640Z,43.42
2022-12-08T06:03:49.774Z,45.20
2022-12-08T06:06:52.675Z,40.50
2022-12-08T06:09:55.379Z,39.30
2022-12-08T06:12:58.133Z,40.72
2022-12-08T06:16:07.331Z,41.58
2022-12-08T06:19:10.199Z,40.03
2022-12-08T06:22:12.915Z,40.97
2022-12-08T06:25:15.718Z,44.65
2022-12-08T06:28:18.898Z,45.88
2022-12-08T06:31:24.169Z,41.90
2022-12-08T06:34:27.116Z,42.65
2022-12-08T06:37:29.840Z,39.83
2022-12-08T06:40:32.765Z,39.28
2022-12-08T06:43:35.711Z,40.03
2022-12-08T06:46:38.434Z,41.25
2022-12-08T06:49:41.138Z,42.40
2022-12-08T06:52:54.200Z,44.85
2022-12-08T06:56:01.339Z,37.90
2022-12-08T06:59:04.407Z,46.30
2022-12-08T07:02:07.480Z,44.28
2022-12-08T07:05:10.285Z,40.72
2022-12-08T07:08:13.132Z,37.50
2022-12-08T07:11:21.109Z,46.40
2022-12-08T07:14:25.137Z,42.65
2022-12-08T07:17:27.831Z,41.85
2022-12-08T07:20:30.662Z,38.15
2022-12-08T07:23:33.797Z,42.08
2022-12-08T07:26:36.521Z,39.88
2022-12-08T07:29:39.239Z,42.70
2022-12-08T07:32:41.999Z,41.42
2022-12-08T07:35:49.098Z,41.92
2022-12-08T07:38:56.779Z,36.50
2022-12-08T07:41:59.782Z,39.88
2022-12-08T07:45:02.875Z,36.80
2022-12-08T07:48:06.116Z,39.85
2022-12-08T07:51:11.615Z,37.67
2022-12-08T07:54:16.873Z,41.47
2022-12-08T07:57:19.705Z,43.55
2022-12-08T08:00:22.628Z,43.92
2022-12-08T08:03:25.743Z,40.50
2022-12-08T08:06:28.776Z,37.60
2022-12-08T08:09:31.918Z,41.17
2022-12-08T08:12:34.589Z,33.17
2022-12-08T08:15:37.809Z,37.58
2022-12-08T08:18:40.797Z,40.38
2022-12-08T08:24:48.916Z,39.33
2022-12-08T08:27:52.091Z,36.88
2022-12-08T08:30:55.081Z,45.33
2022-12-08T08:34:00.444Z,40.58
2022-12-08T08:37:03.089Z,39.70
2022-12-08T08:43:09.393Z,42.58
2022-12-08T08:46:12.655Z,40.28
2022-12-08T08:49:15.150Z,43.15
2022-12-08T08:52:18.460Z,37.10
2022-12-08T08:55:21.078Z,40.83
2022-12-08T08:58:24.183Z,48.45
2022-12-08T09:01:28.175Z,41.03
2022-12-08T09:04:34.493Z,42.47
2022-12-08T09:07:37.152Z,47.53
2022-12-08T09:10:40.233Z,43.58
2022-12-08T09:13:42.873Z,38.08
2022-12-08T09:16:46.036Z,43.17
2022-12-08T09:19:48.512Z,48.83
2022-12-08T09:22:51.719Z,40.55
2022-12-08T09:25:54.236Z,40.43
2022-12-08T09:28:57.763Z,43.30
2022-12-08T09:32:00.340Z,40.22
2022-12-08T09:35:03.729Z,44.40
2022-12-08T09:38:06.191Z,41.67
2022-12-08T09:41:48.392Z,42.97
2022-12-08T09:44:51.754Z,39.53
2022-12-08T09:48:01.046Z,38.50
2022-12-08T09:51:05.001Z,39.80
2022-12-08T09:54:22.486Z,40.88
2022-12-08T09:57:25.855Z,37.78
2022-12-08T10:00:29.193Z,39.08
2022-12-08T10:03:31.921Z,44.85
2022-12-08T10:06:50.950Z,41.13
2022-12-08T10:10:19.955Z,45.10
2022-12-08T10:13:42.407Z,45.17
2022-12-08T10:16:49.993Z,38.38
2022-12-08T10:20:04.252Z,41.37
2022-12-08T10:23:13.844Z,42.30
2022-12-08T10:26:19.898Z,42.88
2022-12-08T10:29:22.815Z,32.53
2022-12-08T10:32:34.181Z,37.58
2022-12-08T10:35:43.094Z,38.55
2022-12-08T10:38:45.896Z,36.25
2022-12-08T10:41:51.170Z,37.55
2022-12-08T10:44:58.365Z,41.33
2022-12-08T10:48:04.612Z,38.88
2022-12-08T10:51:35.668Z,38.50
2022-12-08T10:54:42.966Z,31.83
2022-12-08T10:57:46.462Z,32.97
2022-12-08T11:00:53.572Z,31.80
2022-12-08T11:03:59.368Z,29.58
2022-12-08T11:07:04.771Z,37.25
2022-12-08T11:10:17.888Z,35.42
2022-12-08T11:13:27.590Z,29.40
2022-12-08T11:16:31.057Z,26.10
2022-12-08T11:19:39.134Z,19.77
2022-12-08T11:22:50.672Z,19.80
2022-12-08T11:25:56.220Z,20.00
2022-12-08T11:28:59.222Z,17.62
2022-12-08T11:32:17.853Z,17.33
2022-12-08T11:35:27.070Z,18.70
2022-12-08T11:38:33.160Z,23.27
2022-12-08T11:41:43.069Z,20.80
2022-12-08T11:44:53.556Z,25.33
2022-12-08T11:48:02.118Z,20.37
2022-12-08T11:51:31.164Z,19.70
2022-12-08T11:54:46.264Z,21.52
2022-12-08T11:57:52.031Z,20.70
2022-12-08T12:00:54.890Z,23.30
2022-12-08T12:04:23.205Z,21.77
2022-12-08T12:08:11.197Z,22.05
2022-12-08T12:11:45.721Z,25.52
2022-12-08T12:15:04.107Z,22.13
2022-12-08T12:18:16.270Z,20.27
2022-12-08T12:21:26.383Z,22.17
2022-12-08T12:24:36.245Z,24.45
2022-12-08T12:27:40.579Z,20.60
2022-12-08T12:31:18.459Z,23.30
2022-12-08T12:34:25.965Z,17.62
2022-12-08T12:37:41.749Z,22.73
2022-12-08T12:40:44.684Z,20.95
2022-12-08T12:44:09.333Z,21.02
2022-12-08T12:47:15.030Z,18.20
2022-12-08T12:50:39.058Z,20.77
2022-12-08T12:57:16.002Z,20.00
2022-12-08T13:00:24.279Z,19.52
2022-12-08T13:03:28.093Z,15.93
2022-12-08T13:06:48.301Z,19.40
2022-12-08T13:09:58.830Z,22.42
2022-12-08T13:13:21.970Z,21.83
2022-12-08T13:16:27.751Z,21.75
2022-12-08T13:19:33.523Z,23.77
2022-12-08T13:23:01.778Z,22.95
2022-12-08T13:26:20.708Z,24.17
2022-12-08T13:29:26.961Z,19.00
2022-12-08T13:32:39.035Z,22.60
2022-12-08T13:36:21.280Z,20.58
2022-12-08T13:39:39.350Z,21.58
2022-12-08T13:43:01.877Z,19.73
2022-12-08T13:47:02.834Z,18.70
2022-12-08T13:57:08.533Z,30.67
2022-12-08T14:00:20.683Z,27.08
2022-12-08T14:03:23.743Z,25.98
2022-12-08T14:06:36.137Z,29.10
2022-12-08T14:09:41.182Z,23.70
2022-12-08T14:12:47.911Z,24.70
2022-12-08T14:15:50.779Z,24.83
2022-12-08T14:18:53.628Z,29.55
2022-12-08T14:22:17.108Z,23.90
2022-12-08T14:25:21.651Z,23.35
2022-12-08T14:28:24.951Z,22.08
2022-12-08T14:31:29.299Z,24.12
2022-12-08T14:34:40.420Z,23.05
2022-12-08T14:37:46.550Z,21.60
2022-12-08T14:41:01.055Z,21.25
2022-12-08T14:44:22.913Z,19.65
2022-12-08T14:47:31.139Z,22.17
2022-12-08T14:50:37.027Z,22.25
2022-12-08T14:53:43.312Z,21.83
2022-12-08T14:56:52.312Z,21.23
2022-12-08T14:59:55.269Z,24.15
2022-12-08T15:02:58.101Z,25.08
2022-12-08T15:06:06.303Z,27.05
2022-12-08T15:09:18.503Z,27.95
2022-12-08T15:12:27.386Z,26.37
2022-12-08T15:15:32.756Z,21.70
2022-12-08T15:18:38.094Z,28.60
2022-12-08T15:21:41.607Z,25.80
2022-12-08T15:27:50.406Z,27.80
2022-12-08T15:30:54.292Z,26.87
2022-12-08T15:33:57.075Z,25.40
2022-12-08T15:36:59.838Z,24.42
2022-12-08T15:40:03.136Z,28.92
2022-12-08T15:43:06.235Z,28.70
2022-12-08T15:46:09.154Z,28.12
2022-12-08T15:49:23.601Z,30.25
2022-12-08T15:52:26.317Z,28.70
2022-12-08T15:55:31.124Z,28.08
2022-12-08T15:58:54.739Z,79.12
2022-12-08T16:01:58.436Z,33.47
2022-12-08T16:08:45.831Z,35.10
2022-12-08T16:12:08.230Z,34.30
2022-12-08T16:18:40.089Z,29.95
2022-12-08T16:25:22.455Z,27.73
2022-12-08T16:28:53.025Z,28.70
2022-12-08T16:31:50.270Z,27.52
2022-12-08T16:34:53.178Z,25.50
2022-12-08T16:41:17.519Z,27.55
2022-12-08T16:44:20.512Z,28.92
2022-12-08T16:47:22.941Z,28.45
2022-12-08T16:50:32.191Z,25.45
2022-12-08T16:53:34.637Z,23.50
2022-12-08T16:56:37.856Z,26.62
2022-12-08T16:59:40.471Z,27.97
2022-12-08T17:02:44.851Z,30.88
2022-12-08T17:05:47.366Z,26.58
2022-12-08T17:08:50.383Z,28.65
2022-12-08T17:11:52.843Z,28.60
2022-12-08T17:14:55.898Z,28.77
2022-12-08T17:17:58.420Z,24.83
2022-12-08T17:21:01.471Z,29.30
2022-12-08T17:24:04.676Z,28.10
2022-12-08T17:27:07.645Z,26.90
2022-12-08T17:30:12.536Z,23.23
2022-12-08T17:33:15.780Z,25.90
2022-12-08T17:36:18.290Z,25.98
2022-12-08T17:39:21.407Z,26.02
2022-12-08T17:42:26.077Z,25.57
2022-12-08T17:45:29.194Z,25.25
2022-12-08T17:48:31.821Z,26.47
2022-12-08T17:51:34.860Z,29.92
2022-12-08T17:54:38.211Z,23.83
2022-12-08T17:57:41.523Z,25.75
2022-12-08T18:00:44.051Z,26.20
2022-12-08T18:03:47.223Z,26.25
2022-12-08T18:06:49.720Z,25.70
2022-12-08T18:09:52.803Z,26.77
2022-12-08T18:12:55.599Z,28.87
2022-12-08T18:15:58.718Z,27.30
2022-12-08T18:19:01.217Z,26.97
2022-12-08T18:22:04.380Z,27.90
2022-12-08T18:25:07.393Z,26.73
2022-12-08T18:31:17.692Z,25.70
2022-12-08T18:34:20.870Z,25.73
2022-12-08T18:37:23.551Z,24.00
2022-12-08T18:40:27.968Z,24.33
2022-12-08T18:43:30.419Z,43.42
2022-12-08T18:46:33.484Z,41.45
2022-12-08T18:49:36.055Z,29.77
2022-12-08T18:52:39.162Z,27.87
2022-12-08T18:55:41.660Z,24.12
2022-12-08T18:58:44.671Z,24.50
2022-12-08T19:01:47.223Z,21.70
2022-12-08T19:04:50.347Z,27.17
2022-12-08T19:07:52.863Z,22.83
2022-12-08T19:10:55.964Z,21.90
2022-12-08T19:13:58.463Z,20.87
2022-12-08T19:17:01.882Z,22.70
2022-12-08T19:20:05.909Z,24.23
2022-12-08T19:23:09.187Z,24.52
2022-12-08T19:26:12.249Z,26.15
2022-12-08T19:29:15.533Z,24.45
2022-12-08T19:32:18.362Z,21.80
2022-12-08T19:35:21.770Z,24.33
2022-12-08T19:38:24.386Z,21.33
2022-12-08T19:41:46.792Z,22.60
2022-12-08T19:44:55.634Z,24.12
2022-12-08T19:47:58.733Z,21.35
2022-12-08T19:51:01.234Z,21.90
2022-12-08T19:54:04.463Z,24.37
2022-12-08T19:57:07.050Z,21.00
2022-12-08T20:00:12.456Z,25.52
2022-12-08T20:03:17.035Z,23.98
2022-12-08T20:06:27.531Z,23.17
2022-12-08T20:09:30.377Z,27.52
2022-12-08T20:12:33.166Z,24.17
2022-12-08T20:15:35.963Z,24.48
2022-12-08T20:18:39.978Z,27.77
2022-12-08T20:21:42.831Z,26.50
2022-12-08T20:24:49.161Z,28.60
2022-12-08T20:27:57.468Z,25.30
2022-12-08T20:31:00.800Z,23.98
2022-12-08T20:34:03.823Z,40.17
2022-12-08T20:37:06.604Z,31.30
2022-12-08T20:40:10.216Z,27.23
2022-12-08T20:46:17.464Z,27.13
2022-12-08T20:49:20.662Z,26.98
2022-12-08T20:52:23.852Z,26.48
2022-12-08T20:55:26.950Z,29.42
2022-12-08T20:58:29.807Z,30.23
2022-12-08T21:01:32.954Z,28.33
2022-12-08T21:04:36.146Z,26.65
2022-12-08T21:07:39.024Z,27.70
2022-12-08T21:10:43.938Z,28.42
2022-12-08T21:13:47.287Z,30.80
2022-12-08T21:16:50.976Z,34.67
2022-12-08T21:19:54.042Z,28.10
2022-12-08T21:22:56.995Z,30.65
2022-12-08T21:25:59.794Z,29.65
2022-12-08T21:29:02.624Z,30.05
2022-12-08T21:32:06.018Z,29.77
2022-12-08T21:38:12.065Z,28.23
2022-12-08T21:41:38.019Z,31.98
2022-12-08T21:44:41.108Z,30.23
2022-12-08T21:47:45.716Z,34.05
2022-12-08T21:50:48.750Z,34.15
2022-12-08T21:53:51.704Z,37.85
2022-12-08T21:56:54.429Z,30.45
2022-12-08T21:59:57.651Z,33.90
2022-12-08T22:03:00.650Z,33.97
2022-12-08T22:06:08.832Z,38.00
2022-12-08T22:09:13.478Z,36.28
2022-12-08T22:12:17.233Z,33.78
2022-12-08T22:18:22.608Z,39.03
2022-12-08T22:21:25.616Z,34.53
2022-12-08T22:24:31.816Z,35.30
2022-12-08T22:27:34.676Z,33.72
2022-12-08T22:30:39.319Z,35.95
2022-12-08T22:33:43.625Z,34.17
2022-12-08T22:36:46.469Z,37.70
2022-12-08T22:39:49.516Z,34.80
2022-12-08T22:42:52.405Z,33.78
2022-12-08T22:45:55.149Z,34.60
2022-12-08T22:48:58.005Z,35.50
2022-12-08T22:52:01.037Z,32.90
2022-12-08T22:55:04.129Z,32.92
2022-12-08T22:58:07.094Z,30.83
2022-12-08T23:01:23.622Z,34.28
2022-12-08T23:04:26.639Z,37.03
2022-12-08T23:07:29.590Z,34.03
2022-12-08T23:10:33.347Z,35.65
2022-12-08T23:16:40.456Z,36.67
2022-12-08T23:19:43.483Z,34.65
2022-12-08T23:22:46.340Z,35.13
2022-12-08T23:25:49.329Z,39.05
2022-12-08T23:28:52.756Z,36.05
2022-12-08T23:31:55.983Z,36.20
2022-12-08T23:34:59.016Z,37.78
2022-12-08T23:38:01.834Z,34.50
2022-12-08T23:41:06.652Z,35.60
2022-12-08T23:44:11.954Z,36.85
2022-12-08T23:47:14.727Z,36.40
2022-12-08T23:50:17.657Z,36.38
2022-12-08T23:53:20.440Z,33.92
2022-12-08T23:56:28.327Z,35.83
2022-12-08T23:59:33.338Z,37.50
